Forside
METAR-TAF:

METAR-TAF

Lufthavne :

Kunming, Kina

Breddekreds: 25-01N, længdekreds: 102-41E, højde: 1892 m

Aktuelle vejr

Denne rapport blev lavet for 46 minutter siden, kl. 02:00 UTC
Vind 10 kt fra nordøst
Temperatur 19°C
Fugtighed 73%
Tryk 1019 hPa
Sigt 10 km eller mere
Nogle få skyer i en højde af 2600 ft, Optårnet Cumulus.
Spredte skyer i en højde af 2600 ft
let regnbyger

METAR: ZPPP 160200Z 05005MPS 9999 -SHRA FEW026TCU SCT026 19/14 Q1019 NOSIG

Tid: 10:46 (02:46 UTC)

Vejrudsigter

Denne rapport blev lavet for 7 timer og 38 minutter siden, kl. 19:08 UTC
Foreløbig gælder fra 16 på 00 UTC til 16 på 24 UTC
Vind 8 kt fra nordøst
Sigt 10 km eller mere
Spredte skyer i en højde af 2600 ft

TAF: ZPPP 151908Z 1600/1624 04004MPS 9999 SCT026 TX24/1608Z TN15/1623Z

Vejrobservationer og prognoser fra mere end 4000 lufthavne (METAR og TAF).

De gule og røde prikker repræsenterer de meteorologiske stationer.

Flyt musen over at se navnet på stationen.

Så klik over at se vejr observationer og prognoser.

At skifte det kort: Klik på de grønne knapper med et sort kors for at zoome ind; på den grønne knap med en bindestreg for at zoome ud; eller på de grønne pile for tilstødende kort.


METAR-TAF: